sensor_id;sensor_type;location;lat;lon;timestamp;pressure;altitude;pressure_sealevel;temperature;humidity
60465;BME280;46314;52.392;9.758;2024-01-30T00:01:35;102080.00;;;8.09;83.79
60465;BME280;46314;52.392;9.758;2024-01-30T00:04:02;102075.47;;;8.03;84.49
60465;BME280;46314;52.392;9.758;2024-01-30T00:06:29;102076.66;;;8.07;84.94
60465;BME280;46314;52.392;9.758;2024-01-30T00:08:57;102082.41;;;7.89;86.94
60465;BME280;46314;52.392;9.758;2024-01-30T00:11:23;102076.41;;;8.26;83.54
60465;BME280;46314;52.392;9.758;2024-01-30T00:13:49;102076.22;;;8.15;82.92
60465;BME280;46314;52.392;9.758;2024-01-30T00:16:20;102070.44;;;8.00;83.99
60465;BME280;46314;52.392;9.758;2024-01-30T00:18:46;102069.16;;;7.91;84.70
60465;BME280;46314;52.392;9.758;2024-01-30T00:21:13;102072.56;;;8.27;83.08
60465;BME280;46314;52.392;9.758;2024-01-30T00:23:41;102072.22;;;8.40;82.18
60465;BME280;46314;52.392;9.758;2024-01-30T00:26:07;102063.63;;;7.91;85.57
60465;BME280;46314;52.392;9.758;2024-01-30T00:28:34;102066.72;;;8.23;83.35
60465;BME280;46314;52.392;9.758;2024-01-30T00:31:00;102064.91;;;7.83;86.65
60465;BME280;46314;52.392;9.758;2024-01-30T00:33:27;102053.81;;;7.66;87.31
60465;BME280;46314;52.392;9.758;2024-01-30T00:35:53;102055.13;;;8.09;84.55
60465;BME280;46314;52.392;9.758;2024-01-30T00:38:20;102055.03;;;8.04;85.05
60465;BME280;46314;52.392;9.758;2024-01-30T00:40:48;102054.53;;;8.24;83.31
60465;BME280;46314;52.392;9.758;2024-01-30T00:43:14;102061.25;;;8.45;81.21
60465;BME280;46314;52.392;9.758;2024-01-30T00:45:41;102056.06;;;8.49;81.27
60465;BME280;46314;52.392;9.758;2024-01-30T00:48:09;102056.72;;;8.56;80.64
60465;BME280;46314;52.392;9.758;2024-01-30T00:50:36;102052.63;;;8.59;80.30
60465;BME280;46314;52.392;9.758;2024-01-30T00:53:02;102049.00;;;8.58;80.14
60465;BME280;46314;52.392;9.758;2024-01-30T00:55:29;102058.38;;;8.74;78.80
60465;BME280;46314;52.392;9.758;2024-01-30T00:57:57;102062.91;;;8.63;79.51
60465;BME280;46314;52.392;9.758;2024-01-30T01:00:23;102061.09;;;8.69;79.13
60465;BME280;46314;52.392;9.758;2024-01-30T01:02:50;102057.72;;;8.33;81.17
60465;BME280;46314;52.392;9.758;2024-01-30T01:05:16;102061.25;;;8.45;80.12
60465;BME280;46314;52.392;9.758;2024-01-30T01:07:43;102062.50;;;8.55;80.15
60465;BME280;46314;52.392;9.758;2024-01-30T01:10:09;102060.53;;;8.89;78.14
60465;BME280;46314;52.392;9.758;2024-01-30T01:12:36;102062.84;;;8.58;79.33
60465;BME280;46314;52.392;9.758;2024-01-30T01:15:04;102069.28;;;8.30;80.81
60465;BME280;46314;52.392;9.758;2024-01-30T01:17:31;102059.50;;;8.39;81.89
60465;BME280;46314;52.392;9.758;2024-01-30T01:19:57;102061.41;;;8.05;82.63
60465;BME280;46314;52.392;9.758;2024-01-30T01:22:24;102066.69;;;8.40;81.08
60465;BME280;46314;52.392;9.758;2024-01-30T01:24:51;102067.13;;;8.49;82.09
60465;BME280;46314;52.392;9.758;2024-01-30T01:27:17;102072.41;;;7.88;86.15
60465;BME280;46314;52.392;9.758;2024-01-30T01:29:43;102065.28;;;8.55;82.00
60465;BME280;46314;52.392;9.758;2024-01-30T01:32:11;102056.22;;;8.76;79.70
60465;BME280;46314;52.392;9.758;2024-01-30T01:34:38;102059.91;;;8.31;84.96
60465;BME280;46314;52.392;9.758;2024-01-30T01:37:04;102062.44;;;8.49;82.31
60465;BME280;46314;52.392;9.758;2024-01-30T01:39:31;102056.22;;;8.76;81.09
60465;BME280;46314;52.392;9.758;2024-01-30T01:41:57;102056.97;;;8.55;82.63
60465;BME280;46314;52.392;9.758;2024-01-30T01:44:24;102043.47;;;8.75;80.76
60465;BME280;46314;52.392;9.758;2024-01-30T01:46:51;102052.03;;;8.40;82.56
60465;BME280;46314;52.392;9.758;2024-01-30T01:49:19;102042.00;;;8.89;80.24
60465;BME280;46314;52.392;9.758;2024-01-30T01:51:47;102042.84;;;9.12;78.98
60465;BME280;46314;52.392;9.758;2024-01-30T01:54:14;102042.44;;;8.81;78.95
60465;BME280;46314;52.392;9.758;2024-01-30T01:56:42;102039.53;;;8.71;80.09
60465;BME280;46314;52.392;9.758;2024-01-30T01:59:09;102040.03;;;8.68;81.48
60465;BME280;46314;52.392;9.758;2024-01-30T02:01:36;102027.06;;;8.90;79.21
60465;BME280;46314;52.392;9.758;2024-01-30T02:04:03;102030.94;;;9.12;78.36
60465;BME280;46314;52.392;9.758;2024-01-30T02:06:32;102038.63;;;8.65;80.52
60465;BME280;46314;52.392;9.758;2024-01-30T02:08:59;102030.28;;;8.82;79.96
60465;BME280;46314;52.392;9.758;2024-01-30T02:11:26;102031.59;;;8.58;80.90
60465;BME280;46314;52.392;9.758;2024-01-30T02:13:53;102020.78;;;8.56;81.09
60465;BME280;46314;52.392;9.758;2024-01-30T02:16:19;102019.94;;;8.56;81.23
60465;BME280;46314;52.392;9.758;2024-01-30T02:18:46;102018.25;;;8.94;78.83
60465;BME280;46314;52.392;9.758;2024-01-30T02:21:14;102013.75;;;8.87;79.56
60465;BME280;46314;52.392;9.758;2024-01-30T02:23:41;102004.94;;;8.90;79.49
60465;BME280;46314;52.392;9.758;2024-01-30T02:26:09;102014.16;;;8.57;80.69
60465;BME280;46314;52.392;9.758;2024-01-30T02:28:35;102013.59;;;8.77;80.25
60465;BME280;46314;52.392;9.758;2024-01-30T02:31:02;102010.44;;;9.13;78.61
60465;BME280;46314;52.392;9.758;2024-01-30T02:33:28;102005.31;;;8.77;79.51
60465;BME280;46314;52.392;9.758;2024-01-30T02:35:55;102001.56;;;9.10;77.72
60465;BME280;46314;52.392;9.758;2024-01-30T02:38:23;102000.91;;;8.59;80.96
60465;BME280;46314;52.392;9.758;2024-01-30T02:40:49;102003.13;;;8.23;84.22
60465;BME280;46314;52.392;9.758;2024-01-30T02:43:16;102006.69;;;8.41;84.32
60465;BME280;46314;52.392;9.758;2024-01-30T02:45:43;101992.28;;;8.56;83.11
60465;BME280;46314;52.392;9.758;2024-01-30T02:48:09;101990.75;;;9.09;79.62
60465;BME280;46314;52.392;9.758;2024-01-30T02:50:36;101994.13;;;8.33;84.51
60465;BME280;46314;52.392;9.758;2024-01-30T02:53:02;101989.53;;;8.56;83.69
60465;BME280;46314;52.392;9.758;2024-01-30T02:55:30;101979.88;;;8.58;82.10
60465;BME280;46314;52.392;9.758;2024-01-30T02:57:57;101982.97;;;8.62;83.06
60465;BME280;46314;52.392;9.758;2024-01-30T03:00:23;101983.50;;;8.59;83.24
60465;BME280;46314;52.392;9.758;2024-01-30T03:02:50;101978.31;;;8.45;84.82
60465;BME280;46314;52.392;9.758;2024-01-30T03:05:16;101976.28;;;8.58;83.88
60465;BME280;46314;52.392;9.758;2024-01-30T03:07:43;101981.31;;;9.05;80.81
60465;BME280;46314;52.392;9.758;2024-01-30T03:10:09;101971.72;;;8.90;80.63
60465;BME280;46314;52.392;9.758;2024-01-30T03:12:37;101964.56;;;8.33;84.18
60465;BME280;46314;52.392;9.758;2024-01-30T03:15:04;101965.75;;;8.77;81.63
60465;BME280;46314;52.392;9.758;2024-01-30T03:17:31;101958.53;;;8.53;82.35
60465;BME280;46314;52.392;9.758;2024-01-30T03:19:57;101957.78;;;8.41;84.06
60465;BME280;46314;52.392;9.758;2024-01-30T03:22:24;101965.28;;;8.63;83.91
60465;BME280;46314;52.392;9.758;2024-01-30T03:24:50;101955.88;;;8.86;81.57
60465;BME280;46314;52.392;9.758;2024-01-30T03:27:17;101959.13;;;8.78;81.08
60465;BME280;46314;52.392;9.758;2024-01-30T03:29:45;101956.84;;;8.52;82.89
60465;BME280;46314;52.392;9.758;2024-01-30T03:32:11;101958.38;;;8.43;83.97
60465;BME280;46314;52.392;9.758;2024-01-30T03:34:38;101960.16;;;8.71;81.95
60465;BME280;46314;52.392;9.758;2024-01-30T03:37:04;101961.47;;;8.47;81.54
60465;BME280;46314;52.392;9.758;2024-01-30T03:39:31;101958.53;;;8.76;81.49
60465;BME280;46314;52.392;9.758;2024-01-30T03:41:57;101967.44;;;7.88;85.07
60465;BME280;46314;52.392;9.758;2024-01-30T03:44:24;101959.88;;;8.34;85.84
60465;BME280;46314;52.392;9.758;2024-01-30T03:46:51;101970.28;;;8.27;84.72
60465;BME280;46314;52.392;9.758;2024-01-30T03:49:18;101952.38;;;7.78;88.15
60465;BME280;46314;52.392;9.758;2024-01-30T03:51:45;101951.19;;;8.25;86.42
60465;BME280;46314;52.392;9.758;2024-01-30T03:54:11;101947.91;;;8.45;84.29
60465;BME280;46314;52.392;9.758;2024-01-30T03:56:38;101946.91;;;8.51;84.69
60465;BME280;46314;52.392;9.758;2024-01-30T03:59:04;101947.56;;;8.25;84.40
60465;BME280;46314;52.392;9.758;2024-01-30T04:01:30;101956.88;;;8.19;86.53
60465;BME280;46314;52.392;9.758;2024-01-30T04:03:58;101948.84;;;8.17;86.13
60465;BME280;46314;52.392;9.758;2024-01-30T04:06:26;101948.38;;;8.03;86.27
60465;BME280;46314;52.392;9.758;2024-01-30T04:08:52;101945.34;;;7.88;88.65
60465;BME280;46314;52.392;9.758;2024-01-30T04:11:19;101951.63;;;7.49;90.26
60465;BME280;46314;52.392;9.758;2024-01-30T04:13:45;101954.41;;;7.83;88.34
60465;BME280;46314;52.392;9.758;2024-01-30T04:16:19;101952.78;;;7.70;91.42
60465;BME280;46314;52.392;9.758;2024-01-30T04:18:46;101948.59;;;8.19;87.80
60465;BME280;46314;52.392;9.758;2024-01-30T04:21:14;101950.81;;;8.56;84.31
60465;BME280;46314;52.392;9.758;2024-01-30T04:23:40;101946.66;;;8.36;83.61
60465;BME280;46314;52.392;9.758;2024-01-30T04:26:07;101953.84;;;8.76;81.86
60465;BME280;46314;52.392;9.758;2024-01-30T04:28:33;101946.56;;;8.92;80.53
60465;BME280;46314;52.392;9.758;2024-01-30T04:31:00;101957.44;;;8.38;82.87
60465;BME280;46314;52.392;9.758;2024-01-30T04:33:26;101955.38;;;8.45;83.63
60465;BME280;46314;52.392;9.758;2024-01-30T04:35:52;101958.47;;;8.70;81.41
60465;BME280;46314;52.392;9.758;2024-01-30T04:38:20;101958.59;;;8.81;80.65
60465;BME280;46314;52.392;9.758;2024-01-30T04:40:47;101958.28;;;8.77;80.48
60465;BME280;46314;52.392;9.758;2024-01-30T04:43:13;101956.53;;;8.93;78.86
60465;BME280;46314;52.392;9.758;2024-01-30T04:45:40;101953.19;;;8.30;81.58
60465;BME280;46314;52.392;9.758;2024-01-30T04:48:07;101959.06;;;8.17;84.14
60465;BME280;46314;52.392;9.758;2024-01-30T04:50:33;101959.34;;;8.37;82.01
60465;BME280;46314;52.392;9.758;2024-01-30T04:53:00;101952.53;;;8.23;82.79
60465;BME280;46314;52.392;9.758;2024-01-30T04:55:27;101950.16;;;8.48;81.69
60465;BME280;46314;52.392;9.758;2024-01-30T04:57:54;101955.88;;;8.25;82.09
60465;BME280;46314;52.392;9.758;2024-01-30T05:00:20;101948.28;;;8.37;81.84
60465;BME280;46314;52.392;9.758;2024-01-30T05:02:47;101951.56;;;7.95;84.54
60465;BME280;46314;52.392;9.758;2024-01-30T05:05:14;101947.03;;;8.06;83.53
60465;BME280;46314;52.392;9.758;2024-01-30T05:07:41;101952.72;;;7.82;84.44
60465;BME280;46314;52.392;9.758;2024-01-30T05:10:08;101944.59;;;8.09;84.14
60465;BME280;46314;52.392;9.758;2024-01-30T05:12:36;101946.25;;;8.10;83.30
60465;BME280;46314;52.392;9.758;2024-01-30T05:15:03;101942.19;;;7.62;87.27
60465;BME280;46314;52.392;9.758;2024-01-30T05:17:29;101945.00;;;7.50;88.01
60465;BME280;46314;52.392;9.758;2024-01-30T05:19:56;101953.47;;;7.15;89.83
60465;BME280;46314;52.392;9.758;2024-01-30T05:22:22;101954.38;;;7.49;89.67
60465;BME280;46314;52.392;9.758;2024-01-30T05:24:49;101951.63;;;7.49;88.63
60465;BME280;46314;52.392;9.758;2024-01-30T05:27:15;101954.63;;;7.48;89.28
60465;BME280;46314;52.392;9.758;2024-01-30T05:29:43;101944.72;;;7.35;88.97
60465;BME280;46314;52.392;9.758;2024-01-30T05:32:10;101951.53;;;7.61;88.76
60465;BME280;46314;52.392;9.758;2024-01-30T05:34:36;101953.56;;;7.66;87.86
60465;BME280;46314;52.392;9.758;2024-01-30T05:37:03;101950.31;;;7.23;91.36
60465;BME280;46314;52.392;9.758;2024-01-30T05:39:30;101951.69;;;7.54;89.67
60465;BME280;46314;52.392;9.758;2024-01-30T05:41:56;101945.16;;;7.44;89.67
60465;BME280;46314;52.392;9.758;2024-01-30T05:44:23;101943.00;;;7.17;91.50
60465;BME280;46314;52.392;9.758;2024-01-30T05:46:50;101943.22;;;7.27;90.75
60465;BME280;46314;52.392;9.758;2024-01-30T05:49:17;101945.72;;;7.00;93.33
60465;BME280;46314;52.392;9.758;2024-01-30T05:51:43;101948.88;;;7.49;90.70
60465;BME280;46314;52.392;9.758;2024-01-30T05:54:10;101955.03;;;7.39;90.56
60465;BME280;46314;52.392;9.758;2024-01-30T05:56:38;101955.75;;;7.35;90.78
60465;BME280;46314;52.392;9.758;2024-01-30T05:59:05;101951.34;;;7.05;92.03
60465;BME280;46314;52.392;9.758;2024-01-30T06:01:31;101946.22;;;7.26;90.80
60465;BME280;46314;52.392;9.758;2024-01-30T06:03:59;101949.34;;;7.63;88.68
60465;BME280;46314;52.392;9.758;2024-01-30T06:06:26;101948.88;;;7.49;88.45
60465;BME280;46314;52.392;9.758;2024-01-30T06:08:52;101947.28;;;7.53;88.49
60465;BME280;46314;52.392;9.758;2024-01-30T06:11:19;101945.28;;;7.20;90.10
60465;BME280;46314;52.392;9.758;2024-01-30T06:13:45;101942.31;;;7.38;89.69
60465;BME280;46314;52.392;9.758;2024-01-30T06:16:11;101942.59;;;7.54;88.43
60465;BME280;46314;52.392;9.758;2024-01-30T06:18:38;101946.38;;;7.19;90.84
60465;BME280;46314;52.392;9.758;2024-01-30T06:21:06;101936.03;;;6.97;92.73
60465;BME280;46314;52.392;9.758;2024-01-30T06:23:35;101942.03;;;7.23;91.34
60465;BME280;46314;52.392;9.758;2024-01-30T06:26:02;101932.03;;;7.05;93.75
60465;BME280;46314;52.392;9.758;2024-01-30T06:28:28;101927.72;;;7.09;92.23
60465;BME280;46314;52.392;9.758;2024-01-30T06:30:55;101921.91;;;6.82;95.63
60465;BME280;46314;52.392;9.758;2024-01-30T06:33:21;101925.97;;;7.20;92.37
60465;BME280;46314;52.392;9.758;2024-01-30T06:35:48;101931.69;;;7.47;90.62
60465;BME280;46314;52.392;9.758;2024-01-30T06:38:16;101921.66;;;7.12;93.07
60465;BME280;46314;52.392;9.758;2024-01-30T06:40:42;101923.28;;;7.71;89.89
60465;BME280;46314;52.392;9.758;2024-01-30T06:43:08;101920.06;;;7.28;91.03
60465;BME280;46314;52.392;9.758;2024-01-30T06:45:35;101914.53;;;7.45;90.08
60465;BME280;46314;52.392;9.758;2024-01-30T06:48:02;101922.88;;;7.33;90.51
60465;BME280;46314;52.392;9.758;2024-01-30T06:50:28;101911.56;;;7.64;89.97
60465;BME280;46314;52.392;9.758;2024-01-30T06:52:55;101914.81;;;7.77;87.73
60465;BME280;46314;52.392;9.758;2024-01-30T06:55:23;101925.41;;;7.35;89.79
60465;BME280;46314;52.392;9.758;2024-01-30T06:57:49;101923.13;;;7.15;92.34
60465;BME280;46314;52.392;9.758;2024-01-30T07:00:17;101927.69;;;7.55;89.62
60465;BME280;46314;52.392;9.758;2024-01-30T07:02:44;101929.94;;;7.58;87.61
60465;BME280;46314;52.392;9.758;2024-01-30T07:05:10;101930.25;;;7.28;91.02
60465;BME280;46314;52.392;9.758;2024-01-30T07:07:37;101923.41;;;7.47;89.54
60465;BME280;46314;52.392;9.758;2024-01-30T07:10:04;101921.84;;;7.06;92.16
60465;BME280;46314;52.392;9.758;2024-01-30T07:12:32;101918.91;;;7.75;88.53
60465;BME280;46314;52.392;9.758;2024-01-30T07:14:59;101930.09;;;7.34;89.35
60465;BME280;46314;52.392;9.758;2024-01-30T07:17:25;101920.41;;;7.49;89.36
60465;BME280;46314;52.392;9.758;2024-01-30T07:19:52;101918.16;;;7.63;87.46
60465;BME280;46314;52.392;9.758;2024-01-30T07:22:18;101928.63;;;7.61;88.56
60465;BME280;46314;52.392;9.758;2024-01-30T07:24:45;101931.00;;;7.40;89.72
60465;BME280;46314;52.392;9.758;2024-01-30T07:27:11;101926.25;;;7.52;88.22
60465;BME280;46314;52.392;9.758;2024-01-30T07:29:39;101929.44;;;7.61;87.44
60465;BME280;46314;52.392;9.758;2024-01-30T07:32:06;101927.88;;;7.65;86.89
60465;BME280;46314;52.392;9.758;2024-01-30T07:34:32;101920.59;;;7.76;86.71
60465;BME280;46314;52.392;9.758;2024-01-30T07:37:10;101924.00;;;7.66;87.50
60465;BME280;46314;52.392;9.758;2024-01-30T07:39:37;101922.09;;;8.01;85.69
60465;BME280;46314;52.392;9.758;2024-01-30T07:42:03;101921.63;;;8.09;84.75
60465;BME280;46314;52.392;9.758;2024-01-30T07:44:33;101925.34;;;7.81;85.84
60465;BME280;46314;52.392;9.758;2024-01-30T07:47:01;101928.28;;;7.91;86.71
60465;BME280;46314;52.392;9.758;2024-01-30T07:49:27;101932.66;;;7.87;86.05
60465;BME280;46314;52.392;9.758;2024-01-30T07:51:54;101931.63;;;7.93;85.60
60465;BME280;46314;52.392;9.758;2024-01-30T07:54:20;101929.25;;;8.19;83.64
60465;BME280;46314;52.392;9.758;2024-01-30T07:56:47;101919.91;;;8.03;84.46
60465;BME280;46314;52.392;9.758;2024-01-30T07:59:13;101929.13;;;7.74;85.65
60465;BME280;46314;52.392;9.758;2024-01-30T08:01:41;101918.34;;;8.29;83.06
60465;BME280;46314;52.392;9.758;2024-01-30T08:04:09;101925.34;;;8.53;81.48
60465;BME280;46314;52.392;9.758;2024-01-30T08:06:35;101929.59;;;8.05;83.67
60465;BME280;46314;52.392;9.758;2024-01-30T08:09:02;101926.06;;;8.66;80.03
60465;BME280;46314;52.392;9.758;2024-01-30T08:11:29;101911.91;;;8.23;82.35
60465;BME280;46314;52.392;9.758;2024-01-30T08:13:55;101915.50;;;8.24;83.47
60465;BME280;46314;52.392;9.758;2024-01-30T08:16:22;101914.63;;;8.01;84.58
60465;BME280;46314;52.392;9.758;2024-01-30T08:18:48;101909.03;;;8.35;82.34
60465;BME280;46314;52.392;9.758;2024-01-30T08:21:16;101907.94;;;7.97;83.92
60465;BME280;46314;52.392;9.758;2024-01-30T08:23:43;101905.59;;;8.28;83.60
60465;BME280;46314;52.392;9.758;2024-01-30T08:26:09;101913.06;;;7.71;85.97
60465;BME280;46314;52.392;9.758;2024-01-30T08:28:36;101902.38;;;8.53;81.46
60465;BME280;46314;52.392;9.758;2024-01-30T08:31:03;101897.16;;;8.18;82.59
60465;BME280;46314;52.392;9.758;2024-01-30T08:33:30;101907.06;;;8.52;81.17
60465;BME280;46314;52.392;9.758;2024-01-30T08:35:56;101905.03;;;8.43;82.43
60465;BME280;46314;52.392;9.758;2024-01-30T08:38:25;101905.25;;;8.41;82.34
60465;BME280;46314;52.392;9.758;2024-01-30T08:40:51;101906.38;;;8.62;81.30
60465;BME280;46314;52.392;9.758;2024-01-30T08:43:18;101912.88;;;8.73;80.11
60465;BME280;46314;52.392;9.758;2024-01-30T08:45:44;101907.06;;;8.52;80.43
60465;BME280;46314;52.392;9.758;2024-01-30T08:48:11;101914.28;;;8.53;80.76
60465;BME280;46314;52.392;9.758;2024-01-30T08:50:37;101910.22;;;8.61;80.74
60465;BME280;46314;52.392;9.758;2024-01-30T08:53:04;101910.47;;;8.21;82.73
60465;BME280;46314;52.392;9.758;2024-01-30T08:55:32;101906.34;;;8.84;79.19
60465;BME280;46314;52.392;9.758;2024-01-30T08:57:58;101912.66;;;8.19;82.47
60465;BME280;46314;52.392;9.758;2024-01-30T09:00:25;101909.72;;;8.25;83.35
60465;BME280;46314;52.392;9.758;2024-01-30T09:02:51;101903.84;;;8.83;79.95
60465;BME280;46314;52.392;9.758;2024-01-30T09:05:18;101907.94;;;9.29;77.26
60465;BME280;46314;52.392;9.758;2024-01-30T09:07:44;101910.97;;;9.01;77.78
60465;BME280;46314;52.392;9.758;2024-01-30T09:10:11;101900.59;;;9.13;77.79
60465;BME280;46314;52.392;9.758;2024-01-30T09:12:41;101913.56;;;8.85;78.37
60465;BME280;46314;52.392;9.758;2024-01-30T09:15:09;101901.38;;;9.36;76.06
60465;BME280;46314;52.392;9.758;2024-01-30T09:17:35;101902.84;;;9.81;74.00
60465;BME280;46314;52.392;9.758;2024-01-30T09:20:02;101904.66;;;9.05;77.21
60465;BME280;46314;52.392;9.758;2024-01-30T09:22:29;101907.69;;;9.31;76.56
60465;BME280;46314;52.392;9.758;2024-01-30T09:24:56;101905.00;;;9.41;76.82
60465;BME280;46314;52.392;9.758;2024-01-30T09:27:22;101901.63;;;9.07;77.23
60465;BME280;46314;52.392;9.758;2024-01-30T09:29:50;101903.13;;;8.70;79.72
60465;BME280;46314;52.392;9.758;2024-01-30T09:32:16;101910.84;;;8.90;78.45
60465;BME280;46314;52.392;9.758;2024-01-30T09:34:43;101909.13;;;8.84;78.97
60465;BME280;46314;52.392;9.758;2024-01-30T09:37:10;101905.63;;;9.21;78.21
60465;BME280;46314;52.392;9.758;2024-01-30T09:39:37;101907.78;;;9.14;77.78
60465;BME280;46314;52.392;9.758;2024-01-30T09:42:09;101917.03;;;8.76;79.73
60465;BME280;46314;52.392;9.758;2024-01-30T09:44:38;101909.44;;;9.75;75.20
60465;BME280;46314;52.392;9.758;2024-01-30T09:47:09;101907.63;;;9.26;77.13
60465;BME280;46314;52.392;9.758;2024-01-30T09:49:36;101915.63;;;9.55;75.47
60465;BME280;46314;52.392;9.758;2024-01-30T09:52:05;101910.34;;;9.53;75.82
60465;BME280;46314;52.392;9.758;2024-01-30T09:54:32;101908.97;;;9.88;75.34
60465;BME280;46314;52.392;9.758;2024-01-30T09:57:02;101913.72;;;9.93;73.78
60465;BME280;46314;52.392;9.758;2024-01-30T09:59:29;101913.19;;;9.58;75.21
60465;BME280;46314;52.392;9.758;2024-01-30T10:01:56;101914.72;;;9.76;75.80
60465;BME280;46314;52.392;9.758;2024-01-30T10:04:25;101906.09;;;10.10;74.03
60465;BME280;46314;52.392;9.758;2024-01-30T10:06:51;101905.53;;;9.71;75.17
60465;BME280;46314;52.392;9.758;2024-01-30T10:09:18;101903.41;;;9.83;74.49
60465;BME280;46314;52.392;9.758;2024-01-30T10:11:44;101902.66;;;9.55;76.08
60465;BME280;46314;52.392;9.758;2024-01-30T10:14:11;101893.97;;;9.46;75.92
60465;BME280;46314;52.392;9.758;2024-01-30T10:16:38;101884.88;;;9.51;77.35
60465;BME280;46314;52.392;9.758;2024-01-30T10:19:04;101892.28;;;9.78;75.55
60465;BME280;46314;52.392;9.758;2024-01-30T10:21:32;101882.56;;;10.18;73.88
60465;BME280;46314;52.392;9.758;2024-01-30T10:23:59;101900.59;;;10.15;73.46
60465;BME280;46314;52.392;9.758;2024-01-30T10:26:25;101895.72;;;9.58;76.00
60465;BME280;46314;52.392;9.758;2024-01-30T10:28:52;101882.28;;;9.72;76.63
60465;BME280;46314;52.392;9.758;2024-01-30T10:31:18;101887.34;;;10.28;73.90
60465;BME280;46314;52.392;9.758;2024-01-30T10:33:45;101878.75;;;9.86;75.07
60465;BME280;46314;52.392;9.758;2024-01-30T10:36:14;101879.81;;;9.75;75.20
60465;BME280;46314;52.392;9.758;2024-01-30T10:38:45;101886.13;;;10.08;73.64
60465;BME280;46314;52.392;9.758;2024-01-30T10:41:15;101884.91;;;9.89;75.02
60465;BME280;46314;52.392;9.758;2024-01-30T10:43:47;101877.56;;;10.20;73.07
60465;BME280;46314;52.392;9.758;2024-01-30T10:46:18;101878.91;;;10.60;72.10
60465;BME280;46314;52.392;9.758;2024-01-30T10:48:50;101871.97;;;10.52;72.33
60465;BME280;46314;52.392;9.758;2024-01-30T10:51:18;101884.66;;;11.42;68.89
60465;BME280;46314;52.392;9.758;2024-01-30T10:53:49;101889.28;;;10.80;70.95
60465;BME280;46314;52.392;9.758;2024-01-30T10:56:16;101891.00;;;11.27;69.25
60465;BME280;46314;52.392;9.758;2024-01-30T10:58:42;101885.75;;;11.21;70.63
60465;BME280;46314;52.392;9.758;2024-01-30T11:01:09;101889.63;;;11.30;69.43
60465;BME280;46314;52.392;9.758;2024-01-30T11:03:36;101888.00;;;11.65;67.45
60465;BME280;46314;52.392;9.758;2024-01-30T11:06:03;101882.97;;;11.51;68.68
60465;BME280;46314;52.392;9.758;2024-01-30T11:08:32;101877.41;;;11.46;68.49
60465;BME280;46314;52.392;9.758;2024-01-30T11:11:00;101879.94;;;11.53;67.25
60465;BME280;46314;52.392;9.758;2024-01-30T11:13:27;101871.31;;;11.44;68.64
60465;BME280;46314;52.392;9.758;2024-01-30T11:15:54;101861.28;;;11.07;69.85
60465;BME280;46314;52.392;9.758;2024-01-30T11:18:23;101860.13;;;10.88;71.24
60465;BME280;46314;52.392;9.758;2024-01-30T11:20:50;101859.91;;;11.20;70.21
60465;BME280;46314;52.392;9.758;2024-01-30T11:23:16;101855.09;;;10.79;71.41
60465;BME280;46314;52.392;9.758;2024-01-30T11:25:43;101857.91;;;10.85;71.11
60465;BME280;46314;52.392;9.758;2024-01-30T11:28:14;101851.81;;;10.93;70.74
60465;BME280;46314;52.392;9.758;2024-01-30T11:30:41;101864.03;;;10.92;70.77
60465;BME280;46314;52.392;9.758;2024-01-30T11:33:09;101857.38;;;10.93;71.81
60465;BME280;46314;52.392;9.758;2024-01-30T11:35:37;101856.59;;;11.28;69.91
60465;BME280;46314;52.392;9.758;2024-01-30T11:38:05;101850.19;;;11.07;71.52
60465;BME280;46314;52.392;9.758;2024-01-30T11:40:32;101854.06;;;11.27;70.42
60465;BME280;46314;52.392;9.758;2024-01-30T11:43:01;101850.22;;;11.33;70.16
60465;BME280;46314;52.392;9.758;2024-01-30T11:45:30;101843.91;;;10.44;73.96
60465;BME280;46314;52.392;9.758;2024-01-30T11:47:57;101838.13;;;10.66;73.25
60465;BME280;46314;52.392;9.758;2024-01-30T11:50:24;101841.81;;;10.97;72.25
60465;BME280;46314;52.392;9.758;2024-01-30T11:52:51;101839.59;;;10.94;72.09
60465;BME280;46314;52.392;9.758;2024-01-30T11:55:18;101832.13;;;11.41;69.99
60465;BME280;46314;52.392;9.758;2024-01-30T11:57:45;101833.16;;;10.78;73.36
60465;BME280;46314;52.392;9.758;2024-01-30T12:00:15;101829.06;;;11.11;72.04
60465;BME280;46314;52.392;9.758;2024-01-30T12:02:43;101817.94;;;11.06;72.19
60465;BME280;46314;52.392;9.758;2024-01-30T12:05:10;101811.84;;;11.04;72.09
60465;BME280;46314;52.392;9.758;2024-01-30T12:07:37;101810.72;;;11.67;69.73
60465;BME280;46314;52.392;9.758;2024-01-30T12:10:04;101809.28;;;12.00;68.17
60465;BME280;46314;52.392;9.758;2024-01-30T12:12:31;101800.19;;;11.48;70.93
60465;BME280;46314;52.392;9.758;2024-01-30T12:14:57;101807.13;;;11.25;71.88
60465;BME280;46314;52.392;9.758;2024-01-30T12:17:27;101802.91;;;11.79;68.97
60465;BME280;46314;52.392;9.758;2024-01-30T12:20:04;101806.59;;;11.44;70.97
60465;BME280;46314;52.392;9.758;2024-01-30T12:22:30;101825.47;;;11.42;71.75
60465;BME280;46314;52.392;9.758;2024-01-30T12:24:57;101823.97;;;12.21;69.17
60465;BME280;46314;52.392;9.758;2024-01-30T12:27:23;101840.41;;;12.73;66.42
60465;BME280;46314;52.392;9.758;2024-01-30T12:29:55;101839.50;;;12.27;66.89
60465;BME280;46314;52.392;9.758;2024-01-30T12:32:22;101837.31;;;12.19;67.89
60465;BME280;46314;52.392;9.758;2024-01-30T12:34:49;101841.28;;;11.92;68.82
60465;BME280;46314;52.392;9.758;2024-01-30T12:37:27;101850.47;;;11.67;70.45
60465;BME280;46314;52.392;9.758;2024-01-30T12:39:54;101842.41;;;11.61;71.04
60465;BME280;46314;52.392;9.758;2024-01-30T12:42:21;101846.03;;;11.66;70.68
60465;BME280;46314;52.392;9.758;2024-01-30T12:44:47;101840.19;;;11.58;71.03
60465;BME280;46314;52.392;9.758;2024-01-30T12:47:14;101832.03;;;12.78;67.34
60465;BME280;46314;52.392;9.758;2024-01-30T12:49:41;101829.75;;;12.85;65.75
60465;BME280;46314;52.392;9.758;2024-01-30T12:52:07;101836.91;;;12.46;69.31
60465;BME280;46314;52.392;9.758;2024-01-30T12:54:35;101846.69;;;12.94;66.53
60465;BME280;46314;52.392;9.758;2024-01-30T12:57:02;101839.75;;;13.31;65.57